createdAt,value
2022-09-30T00:04:26.120Z,7.23
2022-09-30T00:09:16.692Z,6.60
2022-09-30T00:14:11.274Z,6.60
2022-09-30T00:19:04.193Z,6.13
2022-09-30T00:23:56.496Z,6.13
2022-09-30T00:28:47.702Z,6.82
2022-09-30T00:33:41.082Z,6.60
2022-09-30T00:38:33.012Z,6.70
2022-09-30T00:43:42.443Z,7.07
2022-09-30T00:48:37.158Z,6.00
2022-09-30T00:53:33.197Z,6.78
2022-09-30T00:58:31.167Z,6.70
2022-09-30T01:03:24.140Z,6.05
2022-09-30T01:08:18.421Z,6.13
2022-09-30T01:13:11.397Z,6.38
2022-09-30T01:18:08.987Z,6.27
2022-09-30T01:23:12.070Z,7.60
2022-09-30T01:28:30.171Z,6.77
2022-09-30T01:33:38.787Z,5.83
2022-09-30T01:38:31.695Z,6.57
2022-09-30T01:43:32.276Z,6.70
2022-09-30T01:48:31.989Z,6.93
2022-09-30T01:53:31.097Z,6.15
2022-09-30T01:58:29.539Z,5.88
2022-09-30T02:03:25.483Z,6.32
2022-09-30T02:08:23.051Z,5.20
2022-09-30T02:13:20.450Z,6.30
2022-09-30T02:18:20.065Z,5.40
2022-09-30T02:23:15.823Z,6.00
2022-09-30T02:28:15.738Z,5.40
2022-09-30T02:33:10.634Z,6.07
2022-09-30T02:38:07.865Z,5.40
2022-09-30T02:42:59.024Z,5.80
2022-09-30T02:48:13.923Z,5.95
2022-09-30T02:53:21.854Z,5.07
2022-09-30T02:58:17.324Z,5.25
2022-09-30T03:03:18.952Z,6.13
2022-09-30T03:08:09.595Z,5.67
2022-09-30T03:13:19.386Z,5.00
2022-09-30T03:18:29.070Z,5.00
2022-09-30T03:23:54.697Z,5.30
2022-09-30T03:28:54.702Z,5.47
2022-09-30T03:33:55.531Z,4.47
2022-09-30T03:38:56.163Z,6.57
2022-09-30T03:43:52.359Z,4.97
2022-09-30T03:48:44.196Z,5.05
2022-09-30T03:53:41.778Z,5.10
2022-09-30T03:58:32.816Z,4.97
2022-09-30T04:03:28.052Z,5.53
2022-09-30T04:08:18.970Z,6.50
2022-09-30T04:13:12.034Z,6.20
2022-09-30T04:18:02.743Z,6.78
2022-09-30T04:22:53.975Z,6.63
2022-09-30T04:27:44.584Z,5.80
2022-09-30T04:32:40.365Z,5.90
2022-09-30T04:37:31.260Z,6.15
2022-09-30T04:42:21.830Z,6.72
2022-09-30T04:47:12.646Z,6.15
2022-09-30T04:52:05.712Z,5.78
2022-09-30T04:56:56.217Z,5.80
2022-09-30T05:01:46.722Z,5.38
2022-09-30T05:06:41.080Z,6.20
2022-09-30T05:11:36.299Z,6.00
2022-09-30T05:16:28.340Z,9.50
2022-09-30T05:21:21.276Z,9.07
2022-09-30T05:26:13.078Z,7.90
2022-09-30T05:31:15.104Z,10.30
2022-09-30T05:36:15.498Z,10.65
2022-09-30T05:41:15.806Z,11.32
2022-09-30T05:46:09.333Z,13.32
2022-09-30T05:51:02.067Z,11.27
2022-09-30T05:55:54.168Z,12.35
2022-09-30T06:00:45.470Z,11.90
2022-09-30T06:05:38.867Z,13.55
2022-09-30T06:10:29.539Z,12.90
2022-09-30T06:15:23.609Z,19.43
2022-09-30T06:20:16.700Z,36.45
2022-09-30T06:25:11.594Z,39.92
2022-09-30T06:30:03.484Z,41.23
2022-09-30T06:34:56.122Z,43.42
2022-09-30T06:39:46.364Z,44.35
2022-09-30T06:44:51.375Z,39.67
2022-09-30T06:49:53.624Z,37.88
2022-09-30T06:54:50.636Z,34.42
2022-09-30T06:59:45.100Z,35.05
2022-09-30T07:04:37.176Z,40.38
2022-09-30T07:09:27.946Z,38.47
2022-09-30T07:14:18.940Z,41.33
2022-09-30T07:19:11.599Z,36.40
2022-09-30T07:24:02.762Z,35.00
2022-09-30T07:28:55.379Z,37.05
2022-09-30T07:33:46.879Z,37.10
2022-09-30T07:38:43.504Z,36.72
2022-09-30T07:43:40.531Z,37.67
2022-09-30T07:48:48.238Z,37.90
2022-09-30T07:53:43.507Z,37.58
2022-09-30T07:58:34.189Z,35.13
2022-09-30T08:03:24.985Z,30.13
2022-09-30T08:08:20.210Z,28.35
2022-09-30T08:13:14.417Z,25.73
2022-09-30T08:18:05.030Z,23.80
2022-09-30T08:22:56.756Z,20.88
2022-09-30T08:27:47.298Z,17.98
2022-09-30T08:32:40.504Z,16.67
2022-09-30T08:37:35.056Z,13.88
2022-09-30T08:42:51.767Z,13.65
2022-09-30T08:47:54.659Z,10.47
2022-09-30T08:52:49.598Z,10.93
2022-09-30T08:57:47.233Z,9.57
2022-09-30T09:02:46.336Z,8.37
2022-09-30T09:07:51.040Z,6.95
2022-09-30T09:12:53.311Z,6.45
2022-09-30T09:18:24.074Z,6.75
2022-09-30T09:23:18.519Z,7.20
2022-09-30T09:28:26.772Z,6.10
2022-09-30T09:33:23.498Z,4.38
2022-09-30T09:38:32.005Z,3.33
2022-09-30T21:58:37.629Z,2.72
2022-09-30T22:03:36.119Z,2.97
2022-09-30T22:08:27.084Z,2.43
2022-09-30T22:13:18.452Z,2.87
2022-09-30T22:18:12.402Z,2.40
2022-09-30T22:23:05.612Z,2.20
2022-09-30T22:27:56.026Z,3.75
2022-09-30T22:33:07.056Z,2.45
2022-09-30T22:38:09.651Z,2.60
2022-09-30T22:43:05.685Z,2.55
2022-09-30T22:47:57.181Z,3.07
2022-09-30T22:52:47.676Z,3.47
2022-09-30T22:57:38.224Z,3.83
2022-09-30T23:02:31.795Z,4.00
2022-09-30T23:07:24.033Z,3.55
2022-09-30T23:12:15.563Z,5.30
2022-09-30T23:17:06.070Z,4.57
2022-09-30T23:21:59.362Z,4.68
2022-09-30T23:26:50.455Z,4.70
2022-09-30T23:31:43.382Z,4.23
2022-09-30T23:36:37.045Z,4.10
2022-09-30T23:41:34.806Z,4.60
2022-09-30T23:46:25.732Z,4.07
2022-09-30T23:51:18.334Z,5.95
2022-09-30T23:56:11.422Z,4.85
